Time;durP1;ratioP1;P1;durP2;ratioP2;P2;SDS_P1;SDS_P2;PMS_P1;PMS_P2;Temp;Humidity;BMP_temperature;BMP_pressure;BME280_temperature;BME280_humidity;BME280_pressure;Samples;Min_cycle;Max_cycle;Signal;HPM_P1;HPM_P2
2022/09/14 00:01:46;;;;;;;11.73;2.20;;;13.00;99.90;;;-142.72;100.00;65101.41;4929469;29;20478;-73
2022/09/14 00:04:20;;;;;;;3.43;2.30;;;13.10;99.90;;;-142.72;100.00;65101.41;4928632;29;20479;-72
2022/09/14 00:06:50;;;;;;;4.57;1.97;;;13.00;99.90;;;-142.72;100.00;65101.41;4923778;29;20444;-71
2022/09/14 00:09:23;;;;;;;4.43;2.90;;;12.90;99.90;;;-142.72;100.00;65101.41;4922730;29;20930;-71
2022/09/14 00:11:53;;;;;;;5.10;1.97;;;12.90;99.90;;;-142.72;100.00;65101.41;4927498;29;20514;-72
2022/09/14 00:14:22;;;;;;;2.30;1.70;;;12.90;99.90;;;-142.72;100.00;65101.41;4923693;29;20523;-72
2022/09/14 00:16:51;;;;;;;4.90;2.67;;;12.80;99.90;;;-142.72;100.00;65101.41;4946317;29;21003;-72
2022/09/14 00:19:25;;;;;;;7.00;1.90;;;12.80;99.90;;;-142.72;100.00;65101.41;4927308;29;20445;-72
2022/09/14 00:21:57;;;;;;;3.17;2.13;;;12.80;99.90;;;-142.72;100.00;65101.41;4929868;29;20445;-71
2022/09/14 00:24:29;;;;;;;3.43;2.93;;;12.80;99.90;;;-142.72;100.00;65101.41;4924755;29;20464;-72
2022/09/14 00:26:58;;;;;;;3.07;2.10;;;12.80;99.90;;;-142.72;100.00;65101.41;4930727;29;20547;-72
2022/09/14 00:29:27;;;;;;;3.27;2.23;;;12.80;99.90;;;-142.72;100.00;65101.41;4928594;29;20531;-72
2022/09/14 00:31:57;;;;;;;4.00;2.10;;;12.80;99.90;;;-142.72;100.00;65101.41;4932548;29;20474;-72
2022/09/14 00:34:28;;;;;;;4.70;2.20;;;12.80;99.90;;;-142.72;100.00;65101.41;4935527;29;20456;-72
2022/09/14 00:36:57;;;;;;;4.17;2.53;;;12.70;99.90;;;-142.72;100.00;65101.41;4932600;29;20536;-72
2022/09/14 00:39:27;;;;;;;3.37;2.00;;;12.80;99.90;;;-142.72;100.00;65101.41;4922180;29;20477;-72
2022/09/14 00:41:55;;;;;;;6.50;2.40;;;12.80;99.90;;;-142.72;100.00;65101.41;4933288;29;20492;-72
2022/09/14 00:45:07;;;;;;;5.07;1.83;;;12.70;99.90;;;-142.72;100.00;65101.41;4920179;29;20464;-72
2022/09/14 00:47:36;;;;;;;4.90;2.27;;;12.70;99.90;;;-142.72;100.00;65101.41;4923946;29;20442;-72
2022/09/14 00:50:08;;;;;;;6.13;2.43;;;12.80;99.90;;;-142.72;100.00;65101.41;4925047;29;20441;-73
2022/09/14 00:52:42;;;;;;;3.30;1.83;;;12.70;99.90;;;-142.72;100.00;65101.41;4935785;29;20837;-74
2022/09/14 00:55:15;;;;;;;3.20;1.80;;;12.70;99.90;;;-142.72;100.00;65101.41;4930770;29;20509;-73
2022/09/14 00:57:48;;;;;;;6.93;1.60;;;12.60;99.90;;;-142.72;100.00;65101.41;4924356;29;20999;-73
2022/09/14 01:00:23;;;;;;;6.30;1.80;;;12.60;99.90;;;-142.72;100.00;65101.41;4924348;29;20432;-73
2022/09/14 01:02:52;;;;;;;5.73;2.00;;;12.60;99.90;;;-142.72;100.00;65101.41;4928450;29;20412;-73
2022/09/14 01:05:36;;;;;;;3.90;2.00;;;12.60;99.90;;;-142.72;100.00;65101.41;4926453;29;20885;-72
2022/09/14 01:08:28;;;;;;;9.13;2.40;;;12.60;99.90;;;-142.72;100.00;65101.41;4925362;29;20476;-72
2022/09/14 01:11:15;;;;;;;5.13;2.30;;;12.50;99.90;;;-142.72;100.00;65101.41;4926071;29;20572;-72
2022/09/14 01:13:58;;;;;;;4.77;1.83;;;12.50;99.90;;;-142.72;100.00;65101.41;4929434;29;21005;-72
2022/09/14 01:16:37;;;;;;;4.27;1.73;;;12.50;99.90;;;-142.72;100.00;65101.41;4928590;29;20914;-71
2022/09/14 01:19:21;;;;;;;8.93;2.33;;;12.50;99.90;;;-142.72;100.00;65101.41;4929240;29;20547;-72
2022/09/14 01:21:56;;;;;;;6.83;2.37;;;12.40;99.90;;;-142.72;100.00;65101.41;4926183;29;20535;-73
2022/09/14 01:24:43;;;;;;;9.27;3.10;;;12.40;99.90;;;-142.72;100.00;65101.41;4926455;29;20468;-72
2022/09/14 01:27:32;;;;;;;9.23;2.80;;;12.30;99.90;;;-142.72;100.00;65101.41;4924156;29;20591;-72
2022/09/14 01:30:07;;;;;;;4.27;2.23;;;12.30;99.90;;;-142.72;100.00;65101.41;4926033;29;20897;-72
2022/09/14 01:32:45;;;;;;;4.70;1.70;;;12.20;99.90;;;-142.72;100.00;65101.41;4929890;29;20932;-72
2022/09/14 01:35:23;;;;;;;6.70;2.10;;;12.20;99.90;;;-142.72;100.00;65101.41;4924147;29;20500;-72
2022/09/14 01:37:58;;;;;;;3.63;2.13;;;12.20;99.90;;;-142.72;100.00;65101.41;4926752;29;20924;-72
2022/09/14 01:40:33;;;;;;;5.90;2.47;;;12.20;99.90;;;-142.72;100.00;65101.41;4929084;29;20540;-72
2022/09/14 01:43:10;;;;;;;3.23;1.87;;;12.20;99.90;;;-142.72;100.00;65101.41;4928840;29;20411;-72
2022/09/14 01:45:47;;;;;;;3.40;2.10;;;12.20;99.90;;;-142.72;100.00;65101.41;4929314;29;20449;-72
2022/09/14 01:48:22;;;;;;;5.90;2.60;;;12.30;99.90;;;-142.72;100.00;65101.41;4924775;29;20498;-72
2022/09/14 01:50:57;;;;;;;5.77;2.33;;;12.20;99.90;;;-142.72;100.00;65101.41;4924059;29;20488;-71
2022/09/14 01:53:33;;;;;;;4.20;2.03;;;12.20;99.90;;;-142.72;100.00;65101.41;4923798;29;20523;-72
2022/09/14 01:56:11;;;;;;;9.63;2.90;;;12.20;99.90;;;-142.72;100.00;65101.41;4930230;29;20536;-72
2022/09/14 01:58:48;;;;;;;8.30;3.17;;;12.20;99.90;;;-142.72;100.00;65101.41;4928772;29;20850;-71
2022/09/14 02:01:26;;;;;;;8.03;3.37;;;12.20;99.90;;;-142.72;100.00;65101.41;4931786;29;20439;-73
2022/09/14 02:04:04;;;;;;;7.97;3.87;;;12.20;99.90;;;-142.72;100.00;65101.41;4927150;29;20466;-70
2022/09/14 02:06:39;;;;;;;3.43;2.47;;;12.20;99.90;;;-142.72;100.00;65101.41;4922014;29;20441;-72
2022/09/14 02:09:12;;;;;;;4.40;3.80;;;12.20;99.90;;;-142.72;100.00;65101.41;4925390;29;20454;-72
2022/09/14 02:11:41;;;;;;;5.27;3.00;;;12.30;99.90;;;-142.72;100.00;65101.41;4945753;23;20532;-73
2022/09/14 02:14:11;;;;;;;7.80;2.40;;;12.20;99.90;;;-142.72;100.00;65101.41;4954662;28;20410;-72
2022/09/14 02:16:42;;;;;;;8.53;2.60;;;12.20;99.90;;;-142.72;100.00;65101.41;4940028;28;20451;-73
2022/09/14 02:19:11;;;;;;;12.00;2.37;;;12.10;99.90;;;-142.72;100.00;65101.41;4960996;28;20413;-74
2022/09/14 02:21:41;;;;;;;3.00;2.70;;;12.10;99.90;;;-142.72;100.00;65101.41;4950325;28;20487;-74
2022/09/14 02:24:11;;;;;;;5.00;2.17;;;12.10;99.90;;;-142.72;100.00;65101.41;5065595;23;20422;-73
2022/09/14 02:26:42;;;;;;;7.50;2.57;;;12.10;99.90;;;-142.72;100.00;65101.41;4934804;29;20540;-72
2022/09/14 02:29:12;;;;;;;2.47;1.90;;;12.10;99.90;;;-142.72;100.00;65101.41;4934917;28;20498;-74
2022/09/14 02:32:01;;;;;;;14.53;3.23;;;12.10;99.90;;;-142.72;100.00;65101.41;4934167;29;20480;-72
2022/09/14 02:34:45;;;;;;;6.20;3.17;;;12.10;99.90;;;-142.72;100.00;65101.41;4932530;29;20451;-73
2022/09/14 02:37:21;;;;;;;5.20;2.27;;;12.10;99.90;;;-142.72;100.00;65101.41;4928691;29;20408;-72
2022/09/14 02:40:01;;;;;;;7.40;2.47;;;12.10;99.90;;;-142.72;100.00;65101.41;4925239;29;20420;-73
2022/09/14 02:42:44;;;;;;;3.10;2.80;;;12.10;99.90;;;-142.72;100.00;65101.41;4923977;29;20441;-72
2022/09/14 02:45:27;;;;;;;5.33;2.13;;;12.10;99.90;;;-142.72;100.00;65101.41;4923410;29;20482;-73
2022/09/14 02:48:08;;;;;;;5.20;2.70;;;12.00;99.90;;;-142.72;100.00;65101.41;4929123;29;21012;-73
2022/09/14 02:50:48;;;;;;;3.53;2.20;;;12.00;99.90;;;-142.72;100.00;65101.41;4924062;29;20518;-73
2022/09/14 02:53:27;;;;;;;10.63;2.40;;;12.00;99.90;;;-142.72;100.00;65101.41;4930744;29;20477;-73
2022/09/14 02:56:01;;;;;;;3.33;2.07;;;12.10;99.90;;;-142.72;100.00;65101.41;4927252;29;20443;-73
2022/09/14 02:58:35;;;;;;;5.80;2.27;;;12.10;99.90;;;-142.72;100.00;65101.41;4919126;29;20853;-73
2022/09/14 03:01:10;;;;;;;6.43;2.60;;;12.10;99.90;;;-142.72;100.00;65101.41;4918882;29;20439;-76
2022/09/14 03:03:39;;;;;;;5.90;3.17;;;12.10;99.90;;;-142.72;100.00;65101.41;4923092;29;20460;-74
2022/09/14 03:06:08;;;;;;;2.77;2.20;;;12.10;99.90;;;-142.72;100.00;65101.41;4922984;29;20445;-74
2022/09/14 03:08:37;;;;;;;5.03;2.20;;;12.00;99.90;;;-142.72;100.00;65101.41;4918582;29;20451;-74
2022/09/14 03:11:06;;;;;;;11.90;2.63;;;12.00;99.90;;;-142.72;100.00;65101.41;4916974;29;20421;-73
2022/09/14 03:13:36;;;;;;;5.67;2.93;;;12.00;99.90;;;-142.72;100.00;65101.41;4920569;29;20415;-74
2022/09/14 03:16:10;;;;;;;5.40;2.80;;;12.00;99.90;;;-142.72;100.00;65101.41;4917607;29;20934;-74
2022/09/14 03:18:39;;;;;;;3.67;2.83;;;12.00;99.90;;;-142.72;100.00;65101.41;4915969;29;20958;-74
2022/09/14 03:21:11;;;;;;;5.30;2.83;;;11.90;99.90;;;-142.72;100.00;65101.41;4916175;29;20746;-74
2022/09/14 03:23:43;;;;;;;3.50;2.57;;;11.80;99.90;;;-142.72;100.00;65101.41;4916489;29;20821;-73
2022/09/14 03:26:15;;;;;;;6.80;2.80;;;11.90;99.90;;;-142.72;100.00;65101.41;4915546;29;20514;-76
2022/09/14 03:28:45;;;;;;;8.00;3.20;;;11.80;99.90;;;-142.72;100.00;65101.41;4915870;29;20449;-74
2022/09/14 03:31:17;;;;;;;6.17;2.47;;;11.90;99.90;;;-142.72;100.00;65101.41;4911075;29;20961;-73
2022/09/14 03:33:46;;;;;;;7.90;2.70;;;11.90;99.90;;;-142.72;100.00;65101.41;4922344;29;20503;-74
2022/09/14 03:36:18;;;;;;;4.30;3.00;;;11.90;99.90;;;-142.72;100.00;65101.41;4923424;29;20444;-75
2022/09/14 03:38:49;;;;;;;8.77;3.00;;;11.90;99.90;;;-142.72;100.00;65101.41;4925150;29;21014;-73
2022/09/14 03:41:20;;;;;;;3.87;2.80;;;11.90;99.90;;;-142.72;100.00;65101.41;4932724;29;20452;-74
2022/09/14 03:43:49;;;;;;;7.40;2.70;;;11.90;99.90;;;-142.72;100.00;65101.41;4917008;29;22325;-73
2022/09/14 03:46:22;;;;;;;3.73;2.50;;;11.90;99.90;;;-142.72;100.00;65101.41;4914219;29;20423;-73
2022/09/14 03:48:52;;;;;;;3.60;2.80;;;12.00;99.90;;;-142.72;100.00;65101.41;4915404;29;20408;-72
2022/09/14 03:51:21;;;;;;;6.10;3.80;;;11.90;99.90;;;-142.72;100.00;65101.41;4909029;29;20503;-75
2022/09/14 03:53:50;;;;;;;4.80;2.60;;;11.90;99.90;;;-142.72;100.00;65101.41;4912418;29;20503;-74
2022/09/14 03:56:22;;;;;;;4.93;2.87;;;12.00;99.90;;;-142.72;100.00;65101.41;4914540;29;20868;-73
2022/09/14 03:58:52;;;;;;;2.63;2.30;;;11.90;99.90;;;-142.72;100.00;65101.41;4915065;29;20504;-74
2022/09/14 04:01:23;;;;;;;5.20;2.90;;;11.80;99.90;;;-142.72;100.00;65101.41;4914989;29;20427;-74
2022/09/14 04:03:52;;;;;;;6.90;3.40;;;11.80;99.90;;;-142.72;100.00;65101.41;4922511;29;20453;-74
2022/09/14 04:06:21;;;;;;;4.87;2.30;;;11.90;99.90;;;-142.72;100.00;65101.41;4920727;29;20956;-74
2022/09/14 04:08:51;;;;;;;13.20;3.50;;;11.90;99.90;;;-142.72;100.00;65101.41;4919333;29;20431;-75
2022/09/14 04:11:23;;;;;;;10.53;2.80;;;11.80;99.90;;;-142.72;100.00;65101.41;4918349;29;20444;-72
2022/09/14 04:13:53;;;;;;;8.57;3.07;;;11.90;99.90;;;-142.72;100.00;65101.41;4917743;29;20568;-73
2022/09/14 04:16:23;;;;;;;20.97;3.93;;;11.90;99.90;;;-142.72;100.00;65101.41;4914040;29;20453;-73
2022/09/14 04:18:52;;;;;;;6.10;3.30;;;12.10;99.90;;;-142.72;100.00;65101.41;4918247;29;20931;-73
2022/09/14 04:21:23;;;;;;;4.53;2.93;;;12.10;99.90;;;-142.72;100.00;65101.41;4908202;29;20408;-75
2022/09/14 04:23:54;;;;;;;5.70;3.10;;;12.20;99.90;;;-142.72;100.00;65101.41;4912653;29;20741;-73
2022/09/14 04:26:44;;;;;;;3.60;3.10;;;12.30;99.90;;;-142.72;100.00;65101.41;4918484;29;21067;-73
2022/09/14 04:29:14;;;;;;;9.17;3.20;;;12.40;99.90;;;-142.72;100.00;65101.41;4913910;29;20444;-75
2022/09/14 04:31:44;;;;;;;3.93;2.70;;;12.40;99.90;;;-142.72;100.00;65101.41;4919629;29;20768;-73
2022/09/14 04:34:13;;;;;;;4.60;3.13;;;12.50;99.90;;;-142.72;100.00;65101.41;4916786;29;20828;-73
2022/09/14 04:36:42;;;;;;;5.50;3.27;;;12.50;99.90;;;-142.72;100.00;65101.41;4913244;29;20408;-73
2022/09/14 04:39:14;;;;;;;4.63;3.63;;;12.60;99.90;;;-142.72;100.00;65101.41;4912710;29;20456;-74
2022/09/14 04:41:42;;;;;;;4.23;3.03;;;12.50;99.90;;;-142.72;100.00;65101.41;4911726;29;20778;-73
2022/09/14 04:44:12;;;;;;;5.03;2.70;;;12.60;99.90;;;-142.72;100.00;65101.41;4915938;29;20560;-71
2022/09/14 04:46:43;;;;;;;3.60;2.43;;;12.60;99.90;;;-142.72;100.00;65101.41;4915407;29;20468;-74
2022/09/14 04:49:17;;;;;;;4.27;3.00;;;12.50;99.90;;;-142.72;100.00;65101.41;4917864;29;20438;-74
2022/09/14 04:51:46;;;;;;;14.40;3.60;;;12.60;99.90;;;-142.72;100.00;65101.41;4915725;29;20413;-74
2022/09/14 04:54:17;;;;;;;12.93;3.70;;;12.60;99.90;;;-142.72;100.00;65101.41;4916453;29;20982;-73
2022/09/14 04:56:46;;;;;;;4.13;3.20;;;12.60;99.90;;;-142.72;100.00;65101.41;4916838;29;20443;-73
2022/09/14 04:59:15;;;;;;;4.33;3.47;;;12.60;99.90;;;-142.72;100.00;65101.41;4920689;29;20412;-73
2022/09/14 05:01:47;;;;;;;4.73;3.87;;;12.70;99.90;;;-142.72;100.00;65101.41;4917483;29;20415;-75
2022/09/14 05:04:16;;;;;;;5.70;3.87;;;12.70;99.90;;;-142.72;100.00;65101.41;4925469;29;20505;-73
2022/09/14 05:06:45;;;;;;;8.10;2.97;;;12.70;99.90;;;-142.72;100.00;65101.41;4919142;29;20752;-76
2022/09/14 05:09:17;;;;;;;11.73;3.23;;;12.80;99.90;;;-142.72;100.00;65101.41;4925614;29;20895;-74
2022/09/14 05:11:48;;;;;;;7.63;3.40;;;12.80;99.90;;;-142.72;100.00;65101.41;4921910;29;20441;-73
2022/09/14 05:14:17;;;;;;;5.10;3.97;;;12.90;99.90;;;-142.72;100.00;65101.41;4911027;29;20455;-73
2022/09/14 05:16:47;;;;;;;6.40;3.10;;;12.90;99.90;;;-142.72;100.00;65101.41;4909521;29;20430;-75
2022/09/14 05:19:18;;;;;;;7.50;3.50;;;12.90;99.90;;;-142.72;100.00;65101.41;4912275;29;20407;-74
2022/09/14 05:21:47;;;;;;;3.23;2.90;;;13.00;99.90;;;-142.72;100.00;65101.41;4915924;29;20420;-73
2022/09/14 05:24:18;;;;;;;3.60;2.90;;;13.00;99.90;;;-142.72;100.00;65101.41;4916494;28;20971;-75
2022/09/14 05:26:47;;;;;;;8.80;4.60;;;13.00;99.90;;;-142.72;100.00;65101.41;4914976;29;20440;-73
2022/09/14 05:29:18;;;;;;;10.83;3.70;;;13.10;99.90;;;-142.72;100.00;65101.41;4920316;29;20436;-73
2022/09/14 05:31:49;;;;;;;7.80;3.60;;;13.00;99.90;;;-142.72;100.00;65101.41;4915025;29;20411;-73
2022/09/14 05:34:17;;;;;;;9.70;4.17;;;12.90;99.90;;;-142.72;100.00;65101.41;4923287;29;20455;-74
2022/09/14 05:36:46;;;;;;;3.40;2.93;;;13.00;99.90;;;-142.72;100.00;65101.41;4922974;29;20408;-72
2022/09/14 05:39:15;;;;;;;6.80;3.83;;;13.10;99.90;;;-142.72;100.00;65101.41;4924796;29;20435;-73
2022/09/14 05:41:50;;;;;;;4.03;3.40;;;13.10;99.90;;;-142.72;100.00;65101.41;4925697;29;20419;-75
2022/09/14 05:44:19;;;;;;;5.43;3.20;;;13.10;99.90;;;-142.72;100.00;65101.41;4914358;29;20457;-75
2022/09/14 05:46:49;;;;;;;6.00;2.90;;;13.10;99.90;;;-142.72;100.00;65101.41;4914117;29;20417;-74
2022/09/14 05:49:18;;;;;;;7.83;3.47;;;13.10;99.90;;;-142.72;100.00;65101.41;4924593;29;20563;-73
2022/09/14 05:51:47;;;;;;;9.70;3.33;;;13.10;99.90;;;-142.72;100.00;65101.41;4919759;29;20908;-74
2022/09/14 05:54:15;;;;;;;12.63;4.03;;;13.10;99.90;;;-142.72;100.00;65101.41;4909109;29;20544;-71
2022/09/14 05:56:44;;;;;;;2.97;2.67;;;13.20;99.90;;;-142.72;100.00;65101.41;4916613;29;20478;-76
2022/09/14 05:59:13;;;;;;;7.97;3.80;;;13.20;99.90;;;-142.72;100.00;65101.41;4931625;29;20944;-74
2022/09/14 06:01:41;;;;;;;2.80;2.50;;;13.30;99.90;;;-142.72;100.00;65101.41;4918403;29;20439;-73
2022/09/14 06:04:12;;;;;;;10.30;4.00;;;13.30;99.90;;;-142.72;100.00;65101.41;4914300;29;20471;-73
2022/09/14 06:06:41;;;;;;;5.10;3.80;;;13.20;99.90;;;-142.72;100.00;65101.41;4915792;29;20717;-75
2022/09/14 06:09:29;;;;;;;11.03;6.37;;;13.20;99.90;;;-142.72;100.00;65101.41;4922104;29;20441;-73
2022/09/14 06:12:01;;;;;;;5.57;2.80;;;13.30;99.90;;;-142.72;100.00;65101.41;4914134;29;20442;-73
2022/09/14 06:14:29;;;;;;;4.47;2.90;;;13.30;99.90;;;-142.72;100.00;65101.41;4914707;29;20455;-73
2022/09/14 06:16:58;;;;;;;7.07;3.80;;;13.40;99.90;;;-142.72;100.00;65101.41;4910668;29;20775;-73
2022/09/14 06:19:28;;;;;;;11.33;4.20;;;13.50;99.90;;;-142.72;100.00;65101.41;4924541;29;20525;-72
2022/09/14 06:21:57;;;;;;;8.97;3.20;;;13.50;99.90;;;-142.72;100.00;65101.41;4923522;29;20410;-73
2022/09/14 06:24:26;;;;;;;6.60;3.53;;;13.70;99.90;;;-142.72;100.00;65101.41;4914270;29;20460;-74
2022/09/14 06:26:54;;;;;;;7.33;3.07;;;13.80;99.90;;;-142.72;100.00;65101.41;4920236;29;20531;-72
2022/09/14 06:29:23;;;;;;;6.17;3.07;;;13.90;99.90;;;-142.72;100.00;65101.41;4908940;29;20444;-73
2022/09/14 06:31:54;;;;;;;7.43;2.17;;;14.00;99.90;;;-142.72;100.00;65101.41;4921431;29;20477;-76
2022/09/14 06:34:23;;;;;;;5.70;2.83;;;14.10;99.90;;;-142.72;100.00;65101.41;4922216;29;20542;-74
2022/09/14 06:36:53;;;;;;;9.53;3.47;;;14.10;99.90;;;-142.72;100.00;65101.41;4925337;29;20757;-73
2022/09/14 06:39:23;;;;;;;6.43;3.13;;;14.30;99.90;;;-142.72;100.00;65101.41;4916010;29;20898;-76
2022/09/14 06:41:52;;;;;;;4.60;2.30;;;14.50;99.90;;;-142.72;100.00;65101.41;4914521;29;20452;-71
2022/09/14 06:44:20;;;;;;;6.73;2.80;;;14.50;99.90;;;-142.72;100.00;65101.41;4911650;29;20473;-73
2022/09/14 06:46:49;;;;;;;6.30;3.33;;;14.70;99.90;;;-142.72;100.00;65101.41;4915483;29;20928;-74
2022/09/14 06:49:21;;;;;;;3.57;2.40;;;14.90;99.90;;;-142.72;100.00;65101.41;4913383;29;20770;-73
2022/09/14 06:51:54;;;;;;;7.40;3.03;;;15.00;99.90;;;-142.72;100.00;65101.41;4915107;29;20445;-73
2022/09/14 06:54:26;;;;;;;4.73;2.27;;;15.30;99.90;;;-142.72;100.00;65101.41;4914740;29;20447;-77
2022/09/14 06:56:55;;;;;;;8.30;3.00;;;15.40;99.90;;;-142.72;100.00;65101.41;4913371;29;20441;-74
2022/09/14 06:59:24;;;;;;;4.13;2.40;;;15.40;99.90;;;-142.72;100.00;65101.41;4909604;29;20457;-75
2022/09/14 07:01:53;;;;;;;7.17;2.10;;;15.50;99.90;;;-142.72;100.00;65101.41;4919083;29;20461;-75
2022/09/14 07:04:23;;;;;;;4.13;2.17;;;15.70;99.90;;;-142.72;100.00;65101.41;4919392;29;20491;-73
2022/09/14 07:06:53;;;;;;;7.93;3.27;;;15.60;99.90;;;-142.72;100.00;65101.41;4919337;29;20456;-74
2022/09/14 07:09:24;;;;;;;5.80;2.50;;;15.70;99.90;;;-142.72;100.00;65101.41;4918232;29;20434;-75
2022/09/14 07:11:53;;;;;;;8.83;2.67;;;15.90;99.90;;;-142.72;100.00;65101.41;4925254;29;20456;-76
2022/09/14 07:14:22;;;;;;;6.97;2.90;;;15.70;99.90;;;-142.72;100.00;65101.41;4912490;29;20451;-73
2022/09/14 07:16:51;;;;;;;4.97;2.07;;;15.70;99.90;;;-142.72;100.00;65101.41;4914653;29;20948;-75
2022/09/14 07:19:20;;;;;;;4.57;3.10;;;15.60;99.90;;;-142.72;100.00;65101.41;4916064;29;20804;-74
2022/09/14 07:21:50;;;;;;;10.27;2.77;;;15.60;99.90;;;-142.72;100.00;65101.41;4916658;29;20440;-75
2022/09/14 07:24:19;;;;;;;7.50;2.30;;;15.70;99.90;;;-142.72;100.00;65101.41;4914948;29;20980;-74
2022/09/14 07:26:49;;;;;;;5.03;2.33;;;15.70;99.90;;;-142.72;100.00;65101.41;4913963;29;20467;-73
2022/09/14 07:29:20;;;;;;;8.77;1.93;;;15.90;99.90;;;-142.72;100.00;65101.41;4911009;29;20532;-75
2022/09/14 07:31:51;;;;;;;5.93;1.90;;;16.00;99.90;;;-142.72;100.00;65101.41;4913232;29;20449;-74
2022/09/14 07:34:22;;;;;;;5.03;2.23;;;16.10;99.90;;;-142.72;100.00;65101.41;4911601;29;20476;-73
2022/09/14 07:36:51;;;;;;;6.83;2.40;;;16.20;99.90;;;-142.72;100.00;65101.41;4914913;29;20449;-74
2022/09/14 07:39:20;;;;;;;10.10;2.57;;;16.20;99.90;;;-142.72;100.00;65101.41;4916516;29;20457;-75
2022/09/14 07:41:50;;;;;;;4.27;1.97;;;16.20;99.90;;;-142.72;100.00;65101.41;4914308;29;20449;-74
2022/09/14 07:44:19;;;;;;;3.57;2.03;;;16.30;99.90;;;-142.72;100.00;65101.41;4916970;29;20460;-73
2022/09/14 07:46:48;;;;;;;3.67;2.03;;;16.50;99.90;;;-142.72;100.00;65101.41;4915252;29;20441;-74
2022/09/14 07:49:17;;;;;;;5.40;2.37;;;16.80;99.90;;;-142.72;100.00;65101.41;4915456;29;20432;-74
2022/09/14 07:51:47;;;;;;;7.37;1.87;;;17.20;99.90;;;-142.72;100.00;65101.41;4917119;29;20516;-74
2022/09/14 07:54:18;;;;;;;8.17;2.37;;;17.30;99.90;;;-142.72;100.00;65101.41;4922782;29;20454;-74
2022/09/14 07:56:49;;;;;;;4.13;1.90;;;17.30;99.90;;;-142.72;100.00;65101.41;4920542;29;20517;-73
2022/09/14 07:59:18;;;;;;;10.53;2.93;;;17.50;99.90;;;-142.72;100.00;65101.41;4926508;29;20449;-74
2022/09/14 08:02:07;;;;;;;5.83;2.33;;;17.70;99.30;;;-142.72;100.00;65101.41;4911875;29;20478;-74
2022/09/14 08:04:38;;;;;;;6.10;1.60;;;17.60;97.10;;;-142.72;100.00;65101.41;4919225;29;20488;-74
2022/09/14 08:07:08;;;;;;;13.27;2.67;;;17.60;97.60;;;-142.72;100.00;65101.41;4912940;29;20446;-74
2022/09/14 08:09:37;;;;;;;10.17;2.23;;;17.40;97.10;;;-142.72;100.00;65101.41;4906855;29;20429;-75
2022/09/14 08:12:08;;;;;;;7.23;2.20;;;17.50;97.10;;;-142.72;100.00;65101.41;4948405;23;20570;-73
2022/09/14 08:14:36;;;;;;;9.83;2.67;;;17.30;97.30;;;-142.72;100.00;65101.41;4961119;28;20504;-73
2022/09/14 08:17:05;;;;;;;10.60;4.40;;;17.30;97.50;;;-142.72;100.00;65101.41;4949299;29;20496;-72
2022/09/14 08:19:34;;;;;;;6.10;1.73;;;17.50;96.40;;;-142.72;100.00;65101.41;4953690;29;20489;-73
2022/09/14 08:22:03;;;;;;;7.27;1.67;;;17.50;94.90;;;-142.72;100.00;65101.41;4955223;29;20479;-71
2022/09/14 08:24:32;;;;;;;3.40;1.67;;;17.30;95.00;;;-142.72;100.00;65101.41;4946174;28;20480;-74
2022/09/14 08:27:01;;;;;;;7.40;3.00;;;17.50;95.70;;;-142.72;100.00;65101.41;4948759;29;20515;-75
2022/09/14 08:29:31;;;;;;;8.27;3.23;;;17.60;95.00;;;-142.72;100.00;65101.41;4946583;29;20789;-73
2022/09/14 08:31:59;;;;;;;3.93;1.83;;;17.70;92.90;;;-142.72;100.00;65101.41;4946204;28;21042;-73
2022/09/14 08:34:28;;;;;;;3.20;1.50;;;17.90;93.70;;;-142.72;100.00;65101.41;4946493;29;20496;-72
2022/09/14 08:36:57;;;;;;;5.30;1.80;;;18.20;86.90;;;-142.72;100.00;65101.41;4944438;29;20448;-73
2022/09/14 08:39:26;;;;;;;4.80;1.77;;;18.10;82.20;;;-142.72;100.00;65101.41;4949084;29;20523;-73
2022/09/14 08:41:59;;;;;;;3.63;1.13;;;18.30;78.80;;;-142.72;100.00;65101.41;4955901;29;20499;-73
2022/09/14 08:44:34;;;;;;;14.47;2.07;;;18.40;73.30;;;-142.72;100.00;65101.41;4955891;29;20439;-73
2022/09/14 08:47:09;;;;;;;5.07;2.10;;;18.50;72.80;;;-142.72;100.00;65101.41;4952079;29;20429;-73
2022/09/14 08:49:46;;;;;;;7.00;2.63;;;18.70;70.60;;;-142.72;100.00;65101.41;4955426;29;20511;-74
2022/09/14 08:52:28;;;;;;;9.23;2.03;;;18.70;65.10;;;-142.72;100.00;65101.41;4954685;29;20444;-72
2022/09/14 08:55:00;;;;;;;6.30;1.93;;;18.50;60.80;;;-142.72;100.00;65101.41;4952618;28;20478;-73
2022/09/14 08:57:42;;;;;;;3.23;1.63;;;18.40;57.30;;;-142.72;100.00;65101.41;4948409;29;20456;-73
2022/09/14 09:00:17;;;;;;;6.93;1.73;;;18.50;59.00;;;-142.72;100.00;65101.41;4951838;29;21019;-72
2022/09/14 09:03:45;;;;;;;5.27;1.60;;;18.70;55.40;;;-142.72;100.00;65101.41;4953950;28;20454;-73
2022/09/14 09:06:22;;;;;;;5.40;2.07;;;18.80;55.00;;;-142.72;100.00;65101.41;4943140;29;20432;-73
2022/09/14 09:09:04;;;;;;;9.80;3.67;;;18.70;53.80;;;-142.72;100.00;65101.41;4942712;29;20504;-73
2022/09/14 09:11:40;;;;;;;3.93;1.67;;;19.00;53.20;;;-142.72;100.00;65101.41;4942381;29;20423;-74
2022/09/14 09:14:19;;;;;;;8.27;1.87;;;19.00;51.60;;;-142.72;100.00;65101.41;4949841;29;20463;-73
2022/09/14 09:16:54;;;;;;;2.77;1.37;;;18.80;47.00;;;-142.72;100.00;65101.41;4949709;28;20447;-74
2022/09/14 09:19:31;;;;;;;9.60;1.40;;;18.40;48.90;;;-142.72;100.00;65101.41;4942781;29;20411;-73
2022/09/14 09:22:03;;;;;;;9.53;8.57;;;18.20;51.10;;;-142.72;100.00;65101.41;4946146;29;20481;-73
2022/09/14 09:24:40;;;;;;;9.27;2.53;;;18.10;53.10;;;-142.72;100.00;65101.41;4945520;29;20468;-73
2022/09/14 09:27:13;;;;;;;9.20;1.50;;;18.10;52.50;;;-142.72;100.00;65101.41;4953137;29;20475;-72
2022/09/14 09:29:43;;;;;;;5.87;1.67;;;18.10;54.80;;;-142.72;100.00;65101.41;4955767;29;20735;-72
2022/09/14 09:32:17;;;;;;;5.17;1.93;;;18.30;53.70;;;-142.72;100.00;65101.41;4951464;29;20455;-72
2022/09/14 09:34:53;;;;;;;5.60;2.17;;;18.40;46.60;;;-142.72;100.00;65101.41;4951808;29;20494;-72
2022/09/14 09:37:53;;;;;;;4.97;2.90;;;18.50;48.40;;;-142.72;100.00;65101.41;4940431;29;20510;-73
2022/09/14 09:40:34;;;;;;;2.50;1.20;;;18.80;44.50;;;-142.72;100.00;65101.41;4950841;29;20449;-72
2022/09/14 09:43:12;;;;;;;4.93;1.77;;;18.80;46.10;;;-142.72;100.00;65101.41;4967313;28;20452;-71
2022/09/14 09:46:00;;;;;;;12.23;1.87;;;19.20;47.50;;;-142.72;100.00;65101.41;4953987;29;20444;-73
2022/09/14 09:48:39;;;;;;;8.00;2.13;;;19.50;46.70;;;-142.72;100.00;65101.41;4954887;29;20436;-71
2022/09/14 09:51:12;;;;;;;7.90;1.77;;;19.70;45.40;;;-142.72;100.00;65101.41;4953283;29;20420;-72
2022/09/14 09:53:52;;;;;;;3.53;2.00;;;19.80;36.00;;;-142.72;100.00;65101.41;4949722;29;20427;-72
2022/09/14 09:56:25;;;;;;;9.83;1.90;;;19.40;33.20;;;-142.72;100.00;65101.41;4958273;29;20480;-72
2022/09/14 09:58:54;;;;;;;4.30;1.63;;;19.50;35.60;;;-142.72;100.00;65101.41;4954236;29;20454;-72
2022/09/14 10:01:29;;;;;;;3.40;1.73;;;19.60;36.20;;;-142.72;100.00;65101.41;4953713;29;20485;-73
2022/09/14 10:04:15;;;;;;;4.17;2.03;;;19.60;30.40;;;-142.72;100.00;65101.41;4951290;29;20554;-73
2022/09/14 10:06:48;;;;;;;5.93;1.60;;;19.50;32.20;;;-142.72;100.00;65101.41;4950103;29;20476;-73
2022/09/14 10:09:20;;;;;;;9.90;2.07;;;19.70;32.50;;;-142.72;100.00;65101.41;4953789;29;21048;-73
2022/09/14 10:11:58;;;;;;;10.03;1.83;;;19.70;29.30;;;-142.72;100.00;65101.41;4955120;28;20464;-73
2022/09/14 10:14:31;;;;;;;4.80;1.33;;;19.60;30.60;;;-142.72;100.00;65101.41;4961710;29;20482;-73
2022/09/14 10:17:16;;;;;;;7.80;1.63;;;19.60;27.40;;;-142.72;100.00;65101.41;4955483;29;20495;-72
2022/09/14 10:19:51;;;;;;;8.80;2.03;;;19.30;26.50;;;-142.72;100.00;65101.41;4951437;29;20456;-74
2022/09/14 10:22:27;;;;;;;4.17;1.60;;;19.30;27.90;;;-142.72;100.00;65101.41;4951890;29;20440;-74
2022/09/14 10:25:00;;;;;;;4.67;1.50;;;19.10;27.10;;;-142.72;100.00;65101.41;4948599;29;20491;-74